sensor_id;sensor_type;location;lat;lon;timestamp;P1;durP1;ratioP1;P2;durP2;ratioP2
59512;SDS011;45330;51.634;5.562;2023-04-03T00:00:56;15.15;;;6.05;;
59512;SDS011;45330;51.634;5.562;2023-04-03T00:03:22;16.92;;;6.38;;
59512;SDS011;45330;51.634;5.562;2023-04-03T00:05:48;15.63;;;6.40;;
59512;SDS011;45330;51.634;5.562;2023-04-03T00:08:13;17.20;;;6.88;;
59512;SDS011;45330;51.634;5.562;2023-04-03T00:10:39;16.42;;;6.45;;
59512;SDS011;45330;51.634;5.562;2023-04-03T00:13:05;17.50;;;6.40;;
59512;SDS011;45330;51.634;5.562;2023-04-03T00:15:30;17.10;;;6.57;;
59512;SDS011;45330;51.634;5.562;2023-04-03T00:17:56;18.60;;;6.50;;
59512;SDS011;45330;51.634;5.562;2023-04-03T00:20:22;17.23;;;6.28;;
59512;SDS011;45330;51.634;5.562;2023-04-03T00:22:48;15.80;;;6.32;;
59512;SDS011;45330;51.634;5.562;2023-04-03T00:25:13;17.23;;;6.65;;
59512;SDS011;45330;51.634;5.562;2023-04-03T00:27:39;18.50;;;6.47;;
59512;SDS011;45330;51.634;5.562;2023-04-03T00:30:06;15.60;;;6.40;;
59512;SDS011;45330;51.634;5.562;2023-04-03T00:32:33;17.83;;;6.50;;
59512;SDS011;45330;51.634;5.562;2023-04-03T00:34:58;18.20;;;7.10;;
59512;SDS011;45330;51.634;5.562;2023-04-03T00:37:23;16.35;;;6.57;;
59512;SDS011;45330;51.634;5.562;2023-04-03T00:39:49;17.35;;;7.28;;
59512;SDS011;45330;51.634;5.562;2023-04-03T00:42:15;18.23;;;6.90;;
59512;SDS011;45330;51.634;5.562;2023-04-03T00:47:07;16.60;;;6.55;;
59512;SDS011;45330;51.634;5.562;2023-04-03T00:49:34;17.42;;;7.28;;
59512;SDS011;45330;51.634;5.562;2023-04-03T00:52:02;16.00;;;7.05;;
59512;SDS011;45330;51.634;5.562;2023-04-03T00:54:28;16.55;;;6.32;;
59512;SDS011;45330;51.634;5.562;2023-04-03T00:56:54;17.58;;;6.78;;
59512;SDS011;45330;51.634;5.562;2023-04-03T00:59:23;17.20;;;7.15;;
59512;SDS011;45330;51.634;5.562;2023-04-03T01:01:55;19.55;;;7.30;;
59512;SDS011;45330;51.634;5.562;2023-04-03T01:06:57;16.90;;;7.10;;
59512;SDS011;45330;51.634;5.562;2023-04-03T01:09:27;16.17;;;6.63;;
59512;SDS011;45330;51.634;5.562;2023-04-03T01:11:54;15.80;;;6.65;;
59512;SDS011;45330;51.634;5.562;2023-04-03T01:14:19;17.67;;;6.47;;
59512;SDS011;45330;51.634;5.562;2023-04-03T01:16:54;17.73;;;6.93;;
59512;SDS011;45330;51.634;5.562;2023-04-03T01:19:20;15.32;;;6.55;;
59512;SDS011;45330;51.634;5.562;2023-04-03T01:22:01;16.45;;;6.63;;
59512;SDS011;45330;51.634;5.562;2023-04-03T01:24:36;18.08;;;7.03;;
59512;SDS011;45330;51.634;5.562;2023-04-03T01:27:04;14.75;;;6.45;;
59512;SDS011;45330;51.634;5.562;2023-04-03T01:29:32;16.92;;;6.75;;
59512;SDS011;45330;51.634;5.562;2023-04-03T01:31:58;17.83;;;6.47;;
59512;SDS011;45330;51.634;5.562;2023-04-03T01:34:25;19.20;;;7.00;;
59512;SDS011;45330;51.634;5.562;2023-04-03T01:36:52;16.65;;;6.50;;
59512;SDS011;45330;51.634;5.562;2023-04-03T01:39:18;14.60;;;6.32;;
59512;SDS011;45330;51.634;5.562;2023-04-03T01:41:43;15.63;;;6.35;;
59512;SDS011;45330;51.634;5.562;2023-04-03T01:44:09;17.45;;;6.70;;
59512;SDS011;45330;51.634;5.562;2023-04-03T01:46:34;16.65;;;6.45;;
59512;SDS011;45330;51.634;5.562;2023-04-03T01:49:00;16.50;;;6.38;;
59512;SDS011;45330;51.634;5.562;2023-04-03T01:51:26;16.05;;;6.30;;
59512;SDS011;45330;51.634;5.562;2023-04-03T01:53:51;14.82;;;6.18;;
59512;SDS011;45330;51.634;5.562;2023-04-03T01:56:17;15.93;;;6.03;;
59512;SDS011;45330;51.634;5.562;2023-04-03T01:58:42;19.05;;;6.03;;
59512;SDS011;45330;51.634;5.562;2023-04-03T02:01:07;17.08;;;6.10;;
59512;SDS011;45330;51.634;5.562;2023-04-03T02:03:33;16.60;;;6.00;;
59512;SDS011;45330;51.634;5.562;2023-04-03T02:05:58;12.88;;;5.47;;
59512;SDS011;45330;51.634;5.562;2023-04-03T02:08:24;16.40;;;6.03;;
59512;SDS011;45330;51.634;5.562;2023-04-03T02:10:50;15.95;;;5.60;;
59512;SDS011;45330;51.634;5.562;2023-04-03T02:13:16;16.35;;;5.68;;
59512;SDS011;45330;51.634;5.562;2023-04-03T02:15:42;16.35;;;5.72;;
59512;SDS011;45330;51.634;5.562;2023-04-03T02:18:07;16.85;;;5.68;;
59512;SDS011;45330;51.634;5.562;2023-04-03T02:20:33;17.50;;;5.97;;
59512;SDS011;45330;51.634;5.562;2023-04-03T02:22:59;18.52;;;5.55;;
59512;SDS011;45330;51.634;5.562;2023-04-03T02:25:25;13.25;;;5.18;;
59512;SDS011;45330;51.634;5.562;2023-04-03T02:27:51;13.23;;;4.72;;
59512;SDS011;45330;51.634;5.562;2023-04-03T02:30:16;12.75;;;4.85;;
59512;SDS011;45330;51.634;5.562;2023-04-03T02:32:42;12.52;;;4.57;;
59512;SDS011;45330;51.634;5.562;2023-04-03T02:35:09;12.27;;;4.70;;
59512;SDS011;45330;51.634;5.562;2023-04-03T02:37:34;13.30;;;4.82;;
59512;SDS011;45330;51.634;5.562;2023-04-03T02:40:00;17.55;;;4.63;;
59512;SDS011;45330;51.634;5.562;2023-04-03T02:42:26;12.65;;;5.40;;
59512;SDS011;45330;51.634;5.562;2023-04-03T02:44:51;11.60;;;4.70;;
59512;SDS011;45330;51.634;5.562;2023-04-03T02:47:16;15.10;;;4.63;;
59512;SDS011;45330;51.634;5.562;2023-04-03T02:49:42;13.02;;;4.57;;
59512;SDS011;45330;51.634;5.562;2023-04-03T02:52:10;12.40;;;4.38;;
59512;SDS011;45330;51.634;5.562;2023-04-03T02:54:35;14.48;;;4.47;;
59512;SDS011;45330;51.634;5.562;2023-04-03T02:57:00;11.85;;;4.60;;
59512;SDS011;45330;51.634;5.562;2023-04-03T02:59:26;11.98;;;4.32;;
59512;SDS011;45330;51.634;5.562;2023-04-03T03:01:51;12.68;;;4.43;;
59512;SDS011;45330;51.634;5.562;2023-04-03T03:04:17;11.07;;;4.22;;
59512;SDS011;45330;51.634;5.562;2023-04-03T03:06:43;10.93;;;4.13;;
59512;SDS011;45330;51.634;5.562;2023-04-03T03:09:08;12.85;;;4.22;;
59512;SDS011;45330;51.634;5.562;2023-04-03T03:11:33;11.45;;;4.10;;
59512;SDS011;45330;51.634;5.562;2023-04-03T03:13:59;11.70;;;4.10;;
59512;SDS011;45330;51.634;5.562;2023-04-03T03:16:24;13.60;;;4.03;;
59512;SDS011;45330;51.634;5.562;2023-04-03T03:18:50;11.52;;;4.00;;
59512;SDS011;45330;51.634;5.562;2023-04-03T03:21:15;10.20;;;3.78;;
59512;SDS011;45330;51.634;5.562;2023-04-03T03:23:41;13.45;;;3.90;;
59512;SDS011;45330;51.634;5.562;2023-04-03T03:26:07;10.00;;;3.90;;
59512;SDS011;45330;51.634;5.562;2023-04-03T03:28:34;10.30;;;3.85;;
59512;SDS011;45330;51.634;5.562;2023-04-03T03:31:01;11.25;;;3.50;;
59512;SDS011;45330;51.634;5.562;2023-04-03T03:33:27;11.40;;;3.53;;
59512;SDS011;45330;51.634;5.562;2023-04-03T03:35:52;10.93;;;3.75;;
59512;SDS011;45330;51.634;5.562;2023-04-03T03:38:19;9.35;;;3.40;;
59512;SDS011;45330;51.634;5.562;2023-04-03T03:40:44;9.63;;;3.60;;
59512;SDS011;45330;51.634;5.562;2023-04-03T03:43:09;11.10;;;3.67;;
59512;SDS011;45330;51.634;5.562;2023-04-03T03:45:35;9.70;;;3.53;;
59512;SDS011;45330;51.634;5.562;2023-04-03T03:48:01;10.75;;;3.40;;
59512;SDS011;45330;51.634;5.562;2023-04-03T03:50:27;9.43;;;3.53;;
59512;SDS011;45330;51.634;5.562;2023-04-03T03:52:52;10.07;;;3.10;;
59512;SDS011;45330;51.634;5.562;2023-04-03T03:55:17;12.48;;;3.70;;
59512;SDS011;45330;51.634;5.562;2023-04-03T03:57:43;10.25;;;3.70;;
59512;SDS011;45330;51.634;5.562;2023-04-03T04:00:08;12.55;;;3.58;;
59512;SDS011;45330;51.634;5.562;2023-04-03T04:02:34;10.57;;;3.55;;
59512;SDS011;45330;51.634;5.562;2023-04-03T04:05:00;9.30;;;3.63;;
59512;SDS011;45330;51.634;5.562;2023-04-03T04:07:25;12.82;;;3.53;;
59512;SDS011;45330;51.634;5.562;2023-04-03T04:09:53;13.77;;;4.15;;
59512;SDS011;45330;51.634;5.562;2023-04-03T04:12:19;10.52;;;3.60;;
59512;SDS011;45330;51.634;5.562;2023-04-03T04:14:45;13.93;;;4.13;;
59512;SDS011;45330;51.634;5.562;2023-04-03T04:17:11;12.50;;;3.63;;
59512;SDS011;45330;51.634;5.562;2023-04-03T04:19:37;11.32;;;3.55;;
59512;SDS011;45330;51.634;5.562;2023-04-03T04:22:03;12.80;;;3.60;;
59512;SDS011;45330;51.634;5.562;2023-04-03T04:24:28;10.88;;;3.60;;
59512;SDS011;45330;51.634;5.562;2023-04-03T04:26:54;11.13;;;3.58;;
59512;SDS011;45330;51.634;5.562;2023-04-03T04:29:20;12.52;;;3.97;;
59512;SDS011;45330;51.634;5.562;2023-04-03T04:31:45;10.05;;;3.30;;
59512;SDS011;45330;51.634;5.562;2023-04-03T04:34:11;9.98;;;3.30;;
59512;SDS011;45330;51.634;5.562;2023-04-03T04:36:38;11.40;;;3.70;;
59512;SDS011;45330;51.634;5.562;2023-04-03T04:39:03;10.65;;;3.35;;
59512;SDS011;45330;51.634;5.562;2023-04-03T04:41:28;12.13;;;3.65;;
59512;SDS011;45330;51.634;5.562;2023-04-03T04:43:54;13.52;;;4.10;;
59512;SDS011;45330;51.634;5.562;2023-04-03T04:46:20;9.45;;;3.70;;
59512;SDS011;45330;51.634;5.562;2023-04-03T04:48:45;14.02;;;4.55;;
59512;SDS011;45330;51.634;5.562;2023-04-03T04:51:10;10.60;;;3.65;;
59512;SDS011;45330;51.634;5.562;2023-04-03T04:53:36;12.00;;;4.07;;
59512;SDS011;45330;51.634;5.562;2023-04-03T04:56:02;10.85;;;3.58;;
59512;SDS011;45330;51.634;5.562;2023-04-03T04:58:28;11.73;;;3.90;;
59512;SDS011;45330;51.634;5.562;2023-04-03T05:01:06;13.55;;;3.90;;
59512;SDS011;45330;51.634;5.562;2023-04-03T05:03:34;11.00;;;3.95;;
59512;SDS011;45330;51.634;5.562;2023-04-03T05:06:00;11.98;;;3.50;;
59512;SDS011;45330;51.634;5.562;2023-04-03T05:08:26;11.95;;;3.67;;
59512;SDS011;45330;51.634;5.562;2023-04-03T05:10:51;11.10;;;3.92;;
59512;SDS011;45330;51.634;5.562;2023-04-03T05:13:18;11.57;;;3.60;;
59512;SDS011;45330;51.634;5.562;2023-04-03T05:15:43;10.45;;;3.60;;
59512;SDS011;45330;51.634;5.562;2023-04-03T05:18:10;8.63;;;3.75;;
59512;SDS011;45330;51.634;5.562;2023-04-03T05:20:35;11.65;;;3.60;;
59512;SDS011;45330;51.634;5.562;2023-04-03T05:23:02;13.55;;;3.60;;
59512;SDS011;45330;51.634;5.562;2023-04-03T05:25:27;11.38;;;3.20;;
59512;SDS011;45330;51.634;5.562;2023-04-03T05:27:52;10.40;;;3.42;;
59512;SDS011;45330;51.634;5.562;2023-04-03T05:30:18;9.90;;;3.00;;
59512;SDS011;45330;51.634;5.562;2023-04-03T05:32:43;12.63;;;3.20;;
59512;SDS011;45330;51.634;5.562;2023-04-03T05:35:10;10.35;;;3.30;;
59512;SDS011;45330;51.634;5.562;2023-04-03T05:37:36;11.32;;;3.05;;
59512;SDS011;45330;51.634;5.562;2023-04-03T05:40:02;10.25;;;2.88;;
59512;SDS011;45330;51.634;5.562;2023-04-03T05:42:31;8.77;;;3.42;;
59512;SDS011;45330;51.634;5.562;2023-04-03T05:44:56;5.50;;;2.53;;
59512;SDS011;45330;51.634;5.562;2023-04-03T05:47:22;7.82;;;2.40;;
59512;SDS011;45330;51.634;5.562;2023-04-03T05:49:47;11.18;;;3.17;;
59512;SDS011;45330;51.634;5.562;2023-04-03T05:52:35;8.32;;;2.70;;
59512;SDS011;45330;51.634;5.562;2023-04-03T05:55:01;10.75;;;2.85;;
59512;SDS011;45330;51.634;5.562;2023-04-03T05:57:27;9.93;;;2.90;;
59512;SDS011;45330;51.634;5.562;2023-04-03T05:59:52;9.85;;;2.85;;
59512;SDS011;45330;51.634;5.562;2023-04-03T06:02:19;10.65;;;3.20;;
59512;SDS011;45330;51.634;5.562;2023-04-03T06:04:46;11.32;;;3.10;;
59512;SDS011;45330;51.634;5.562;2023-04-03T06:07:16;10.45;;;2.80;;
59512;SDS011;45330;51.634;5.562;2023-04-03T06:09:45;9.43;;;2.85;;
59512;SDS011;45330;51.634;5.562;2023-04-03T06:12:12;9.73;;;3.20;;
59512;SDS011;45330;51.634;5.562;2023-04-03T06:14:37;10.15;;;3.38;;
59512;SDS011;45330;51.634;5.562;2023-04-03T06:17:02;11.57;;;2.88;;
59512;SDS011;45330;51.634;5.562;2023-04-03T06:19:29;9.65;;;3.00;;
59512;SDS011;45330;51.634;5.562;2023-04-03T06:21:55;7.93;;;2.60;;
59512;SDS011;45330;51.634;5.562;2023-04-03T06:24:20;9.32;;;3.22;;
59512;SDS011;45330;51.634;5.562;2023-04-03T06:26:47;11.90;;;3.17;;
59512;SDS011;45330;51.634;5.562;2023-04-03T06:29:14;9.32;;;2.97;;
59512;SDS011;45330;51.634;5.562;2023-04-03T06:31:40;12.20;;;3.38;;
59512;SDS011;45330;51.634;5.562;2023-04-03T06:34:05;7.68;;;2.72;;
59512;SDS011;45330;51.634;5.562;2023-04-03T06:36:33;8.20;;;2.88;;
59512;SDS011;45330;51.634;5.562;2023-04-03T06:38:59;13.00;;;2.70;;
59512;SDS011;45330;51.634;5.562;2023-04-03T06:41:25;12.07;;;3.08;;
59512;SDS011;45330;51.634;5.562;2023-04-03T06:43:51;6.18;;;2.72;;
59512;SDS011;45330;51.634;5.562;2023-04-03T06:46:17;11.63;;;2.55;;
59512;SDS011;45330;51.634;5.562;2023-04-03T06:48:44;9.07;;;2.72;;
59512;SDS011;45330;51.634;5.562;2023-04-03T06:51:31;12.90;;;2.80;;
59512;SDS011;45330;51.634;5.562;2023-04-03T06:53:57;13.40;;;3.00;;
59512;SDS011;45330;51.634;5.562;2023-04-03T06:56:23;7.93;;;2.83;;
59512;SDS011;45330;51.634;5.562;2023-04-03T06:58:50;10.57;;;2.72;;
59512;SDS011;45330;51.634;5.562;2023-04-03T07:01:16;8.55;;;2.45;;
59512;SDS011;45330;51.634;5.562;2023-04-03T07:03:44;12.25;;;3.00;;
59512;SDS011;45330;51.634;5.562;2023-04-03T07:06:11;14.52;;;3.05;;
59512;SDS011;45330;51.634;5.562;2023-04-03T07:08:37;12.05;;;3.20;;
59512;SDS011;45330;51.634;5.562;2023-04-03T07:11:03;11.32;;;3.25;;
59512;SDS011;45330;51.634;5.562;2023-04-03T07:13:30;9.85;;;2.78;;
59512;SDS011;45330;51.634;5.562;2023-04-03T07:15:55;9.13;;;2.83;;
59512;SDS011;45330;51.634;5.562;2023-04-03T07:18:20;9.75;;;2.72;;
59512;SDS011;45330;51.634;5.562;2023-04-03T07:20:46;8.35;;;2.72;;
59512;SDS011;45330;51.634;5.562;2023-04-03T07:23:12;11.07;;;2.83;;
59512;SDS011;45330;51.634;5.562;2023-04-03T07:25:41;10.40;;;2.80;;
59512;SDS011;45330;51.634;5.562;2023-04-03T07:28:14;10.98;;;3.15;;
59512;SDS011;45330;51.634;5.562;2023-04-03T07:30:47;9.80;;;2.60;;
59512;SDS011;45330;51.634;5.562;2023-04-03T07:33:15;9.90;;;2.45;;
59512;SDS011;45330;51.634;5.562;2023-04-03T07:35:42;8.55;;;2.80;;
59512;SDS011;45330;51.634;5.562;2023-04-03T07:38:08;10.85;;;2.60;;
59512;SDS011;45330;51.634;5.562;2023-04-03T07:40:34;13.13;;;2.72;;
59512;SDS011;45330;51.634;5.562;2023-04-03T07:43:00;12.02;;;2.67;;
59512;SDS011;45330;51.634;5.562;2023-04-03T07:45:26;10.23;;;3.28;;
59512;SDS011;45330;51.634;5.562;2023-04-03T07:47:52;10.23;;;3.03;;
59512;SDS011;45330;51.634;5.562;2023-04-03T07:50:17;13.02;;;2.92;;
59512;SDS011;45330;51.634;5.562;2023-04-03T07:52:43;8.43;;;2.50;;
59512;SDS011;45330;51.634;5.562;2023-04-03T07:55:09;11.30;;;3.17;;
59512;SDS011;45330;51.634;5.562;2023-04-03T07:57:35;10.60;;;2.50;;
59512;SDS011;45330;51.634;5.562;2023-04-03T08:00:01;11.88;;;2.65;;
59512;SDS011;45330;51.634;5.562;2023-04-03T08:02:27;7.55;;;2.40;;
59512;SDS011;45330;51.634;5.562;2023-04-03T08:04:53;9.50;;;2.30;;
59512;SDS011;45330;51.634;5.562;2023-04-03T08:07:18;7.70;;;2.30;;
59512;SDS011;45330;51.634;5.562;2023-04-03T08:09:44;5.65;;;2.55;;
59512;SDS011;45330;51.634;5.562;2023-04-03T08:12:09;9.05;;;2.30;;
59512;SDS011;45330;51.634;5.562;2023-04-03T08:14:36;8.57;;;2.50;;
59512;SDS011;45330;51.634;5.562;2023-04-03T08:17:02;9.60;;;2.78;;
59512;SDS011;45330;51.634;5.562;2023-04-03T08:19:29;8.27;;;2.42;;
59512;SDS011;45330;51.634;5.562;2023-04-03T08:21:55;9.82;;;2.30;;
59512;SDS011;45330;51.634;5.562;2023-04-03T08:24:22;6.25;;;2.38;;
59512;SDS011;45330;51.634;5.562;2023-04-03T08:26:47;7.55;;;2.30;;
59512;SDS011;45330;51.634;5.562;2023-04-03T08:29:13;8.20;;;2.33;;
59512;SDS011;45330;51.634;5.562;2023-04-03T08:31:38;5.78;;;2.10;;
59512;SDS011;45330;51.634;5.562;2023-04-03T08:34:04;8.50;;;2.30;;
59512;SDS011;45330;51.634;5.562;2023-04-03T08:36:30;5.30;;;2.15;;
59512;SDS011;45330;51.634;5.562;2023-04-03T08:38:56;9.40;;;2.03;;
59512;SDS011;45330;51.634;5.562;2023-04-03T08:49:59;6.90;;;1.88;;
59512;SDS011;45330;51.634;5.562;2023-04-03T08:52:41;7.40;;;2.10;;
59512;SDS011;45330;51.634;5.562;2023-04-03T08:58:06;8.02;;;2.30;;
59512;SDS011;45330;51.634;5.562;2023-04-03T09:00:44;6.70;;;1.95;;
59512;SDS011;45330;51.634;5.562;2023-04-03T09:03:14;7.68;;;1.83;;
59512;SDS011;45330;51.634;5.562;2023-04-03T09:05:53;4.18;;;1.80;;
59512;SDS011;45330;51.634;5.562;2023-04-03T09:08:23;6.10;;;1.80;;
59512;SDS011;45330;51.634;5.562;2023-04-03T09:10:58;6.38;;;1.60;;
59512;SDS011;45330;51.634;5.562;2023-04-03T09:21:54;4.20;;;1.65;;
59512;SDS011;45330;51.634;5.562;2023-04-03T09:24:22;5.80;;;1.83;;
59512;SDS011;45330;51.634;5.562;2023-04-03T09:26:49;7.25;;;1.90;;
59512;SDS011;45330;51.634;5.562;2023-04-03T09:29:19;5.00;;;1.83;;
59512;SDS011;45330;51.634;5.562;2023-04-03T09:31:52;2.70;;;1.40;;
59512;SDS011;45330;51.634;5.562;2023-04-03T09:34:24;6.95;;;1.70;;
59512;SDS011;45330;51.634;5.562;2023-04-03T09:36:57;2.67;;;1.58;;
59512;SDS011;45330;51.634;5.562;2023-04-03T09:39:28;2.55;;;1.25;;
59512;SDS011;45330;51.634;5.562;2023-04-03T09:41:55;6.32;;;1.60;;
59512;SDS011;45330;51.634;5.562;2023-04-03T09:44:24;4.25;;;1.20;;
59512;SDS011;45330;51.634;5.562;2023-04-03T09:46:51;3.28;;;1.38;;
59512;SDS011;45330;51.634;5.562;2023-04-03T09:49:17;3.70;;;1.65;;
59512;SDS011;45330;51.634;5.562;2023-04-03T09:51:43;4.38;;;1.30;;
59512;SDS011;45330;51.634;5.562;2023-04-03T09:57:09;2.53;;;1.10;;
59512;SDS011;45330;51.634;5.562;2023-04-03T09:59:38;2.65;;;1.05;;
59512;SDS011;45330;51.634;5.562;2023-04-03T10:04:37;4.07;;;1.27;;
59512;SDS011;45330;51.634;5.562;2023-04-03T10:07:04;2.90;;;1.00;;
59512;SDS011;45330;51.634;5.562;2023-04-03T10:09:56;1.77;;;0.90;;
59512;SDS011;45330;51.634;5.562;2023-04-03T10:12:23;2.35;;;0.90;;
59512;SDS011;45330;51.634;5.562;2023-04-03T10:14:59;1.98;;;1.10;;
59512;SDS011;45330;51.634;5.562;2023-04-03T10:28:09;3.53;;;1.20;;
59512;SDS011;45330;51.634;5.562;2023-04-03T10:44:47;2.53;;;1.00;;
59512;SDS011;45330;51.634;5.562;2023-04-03T10:47:20;3.80;;;1.27;;
59512;SDS011;45330;51.634;5.562;2023-04-03T10:52:22;3.03;;;1.20;;
59512;SDS011;45330;51.634;5.562;2023-04-03T10:54:58;3.47;;;0.88;;
59512;SDS011;45330;51.634;5.562;2023-04-03T10:57:39;5.57;;;1.20;;
59512;SDS011;45330;51.634;5.562;2023-04-03T11:00:06;1.73;;;1.02;;
59512;SDS011;45330;51.634;5.562;2023-04-03T11:02:50;2.33;;;1.23;;
59512;SDS011;45330;51.634;5.562;2023-04-03T11:07:57;4.20;;;1.30;;
59512;SDS011;45330;51.634;5.562;2023-04-03T11:10:36;4.68;;;1.20;;
59512;SDS011;45330;51.634;5.562;2023-04-03T11:16:07;3.37;;;1.23;;
59512;SDS011;45330;51.634;5.562;2023-04-03T11:18:42;4.47;;;1.52;;
59512;SDS011;45330;51.634;5.562;2023-04-03T11:21:20;1.20;;;1.08;;
59512;SDS011;45330;51.634;5.562;2023-04-03T11:23:51;5.88;;;1.45;;
59512;SDS011;45330;51.634;5.562;2023-04-03T11:26:19;6.25;;;1.42;;
59512;SDS011;45330;51.634;5.562;2023-04-03T11:28:52;5.68;;;1.40;;
59512;SDS011;45330;51.634;5.562;2023-04-03T11:34:19;4.05;;;1.40;;
59512;SDS011;45330;51.634;5.562;2023-04-03T11:36:57;4.82;;;1.40;;
59512;SDS011;45330;51.634;5.562;2023-04-03T11:39:26;3.22;;;1.40;;
59512;SDS011;45330;51.634;5.562;2023-04-03T11:41:55;4.18;;;1.38;;
59512;SDS011;45330;51.634;5.562;2023-04-03T11:44:46;4.03;;;1.27;;
59512;SDS011;45330;51.634;5.562;2023-04-03T11:47:12;2.67;;;1.10;;
59512;SDS011;45330;51.634;5.562;2023-04-03T12:21:20;7.85;;;2.25;;
59512;SDS011;45330;51.634;5.562;2023-04-03T12:37:38;7.50;;;2.00;;
59512;SDS011;45330;51.634;5.562;2023-04-03T12:43:10;5.63;;;1.80;;
59512;SDS011;45330;51.634;5.562;2023-04-03T12:46:03;8.23;;;1.80;;
59512;SDS011;45330;51.634;5.562;2023-04-03T12:48:53;7.45;;;1.90;;
59512;SDS011;45330;51.634;5.562;2023-04-03T12:56:44;6.60;;;1.70;;
59512;SDS011;45330;51.634;5.562;2023-04-03T12:59:21;6.15;;;2.05;;
59512;SDS011;45330;51.634;5.562;2023-04-03T13:01:58;3.47;;;1.60;;
59512;SDS011;45330;51.634;5.562;2023-04-03T13:04:25;4.65;;;1.85;;
59512;SDS011;45330;51.634;5.562;2023-04-03T13:06:52;4.85;;;1.67;;
59512;SDS011;45330;51.634;5.562;2023-04-03T13:09:25;2.97;;;1.55;;
59512;SDS011;45330;51.634;5.562;2023-04-03T13:12:15;4.25;;;1.63;;
59512;SDS011;45330;51.634;5.562;2023-04-03T13:14:50;5.60;;;1.90;;
59512;SDS011;45330;51.634;5.562;2023-04-03T13:17:17;2.97;;;1.80;;
59512;SDS011;45330;51.634;5.562;2023-04-03T13:19:44;4.43;;;1.55;;
59512;SDS011;45330;51.634;5.562;2023-04-03T13:24:59;4.57;;;1.90;;
59512;SDS011;45330;51.634;5.562;2023-04-03T13:27:29;5.40;;;1.88;;
59512;SDS011;45330;51.634;5.562;2023-04-03T13:29:57;6.38;;;1.90;;
59512;SDS011;45330;51.634;5.562;2023-04-03T13:32:25;5.90;;;2.00;;
59512;SDS011;45330;51.634;5.562;2023-04-03T13:34:52;5.28;;;1.70;;
59512;SDS011;45330;51.634;5.562;2023-04-03T13:42:33;5.45;;;1.98;;
59512;SDS011;45330;51.634;5.562;2023-04-03T13:47:53;7.43;;;2.10;;
59512;SDS011;45330;51.634;5.562;2023-04-03T13:50:32;5.82;;;1.75;;
59512;SDS011;45330;51.634;5.562;2023-04-03T13:53:02;8.18;;;2.17;;
59512;SDS011;45330;51.634;5.562;2023-04-03T13:55:52;5.60;;;1.88;;
59512;SDS011;45330;51.634;5.562;2023-04-03T13:58:20;6.63;;;2.13;;
59512;SDS011;45330;51.634;5.562;2023-04-03T14:00:53;7.18;;;2.00;;
59512;SDS011;45330;51.634;5.562;2023-04-03T14:03:29;7.27;;;2.30;;
59512;SDS011;45330;51.634;5.562;2023-04-03T14:05:55;6.22;;;2.17;;
59512;SDS011;45330;51.634;5.562;2023-04-03T14:08:21;5.97;;;2.20;;
59512;SDS011;45330;51.634;5.562;2023-04-03T14:10:47;6.03;;;1.98;;
59512;SDS011;45330;51.634;5.562;2023-04-03T14:13:15;5.72;;;1.98;;
59512;SDS011;45330;51.634;5.562;2023-04-03T14:15:42;7.28;;;2.03;;
59512;SDS011;45330;51.634;5.562;2023-04-03T14:18:12;4.22;;;1.98;;
59512;SDS011;45330;51.634;5.562;2023-04-03T14:20:39;5.43;;;2.00;;
59512;SDS011;45330;51.634;5.562;2023-04-03T14:23:05;5.28;;;2.08;;
59512;SDS011;45330;51.634;5.562;2023-04-03T14:25:31;6.75;;;2.20;;
59512;SDS011;45330;51.634;5.562;2023-04-03T14:27:57;2.72;;;1.83;;
59512;SDS011;45330;51.634;5.562;2023-04-03T14:30:24;7.95;;;2.65;;
59512;SDS011;45330;51.634;5.562;2023-04-03T14:32:52;5.80;;;1.92;;
59512;SDS011;45330;51.634;5.562;2023-04-03T14:35:18;6.40;;;2.25;;
59512;SDS011;45330;51.634;5.562;2023-04-03T14:37:44;9.35;;;2.20;;
59512;SDS011;45330;51.634;5.562;2023-04-03T14:40:15;6.95;;;2.10;;
59512;SDS011;45330;51.634;5.562;2023-04-03T14:42:42;5.78;;;2.25;;
59512;SDS011;45330;51.634;5.562;2023-04-03T14:45:10;6.85;;;1.88;;
59512;SDS011;45330;51.634;5.562;2023-04-03T14:47:42;5.68;;;2.05;;
59512;SDS011;45330;51.634;5.562;2023-04-03T14:50:13;7.20;;;1.88;;
59512;SDS011;45330;51.634;5.562;2023-04-03T14:52:46;6.68;;;2.20;;
59512;SDS011;45330;51.634;5.562;2023-04-03T14:55:12;8.13;;;2.40;;
59512;SDS011;45330;51.634;5.562;2023-04-03T14:57:40;5.68;;;1.90;;
59512;SDS011;45330;51.634;5.562;2023-04-03T15:00:07;6.72;;;2.17;;
59512;SDS011;45330;51.634;5.562;2023-04-03T15:02:37;5.53;;;2.00;;
59512;SDS011;45330;51.634;5.562;2023-04-03T15:05:04;5.40;;;2.20;;
59512;SDS011;45330;51.634;5.562;2023-04-03T15:07:34;6.20;;;2.00;;
59512;SDS011;45330;51.634;5.562;2023-04-03T15:10:21;7.80;;;2.60;;
59512;SDS011;45330;51.634;5.562;2023-04-03T15:12:48;8.27;;;2.42;;
59512;SDS011;45330;51.634;5.562;2023-04-03T15:15:15;4.20;;;2.10;;
59512;SDS011;45330;51.634;5.562;2023-04-03T15:17:41;9.00;;;2.42;;
59512;SDS011;45330;51.634;5.562;2023-04-03T15:20:17;8.30;;;1.98;;
59512;SDS011;45330;51.634;5.562;2023-04-03T15:22:45;4.63;;;1.90;;
59512;SDS011;45330;51.634;5.562;2023-04-03T15:25:10;3.95;;;1.92;;
59512;SDS011;45330;51.634;5.562;2023-04-03T15:27:36;5.13;;;2.10;;
59512;SDS011;45330;51.634;5.562;2023-04-03T15:30:03;5.70;;;2.10;;
59512;SDS011;45330;51.634;5.562;2023-04-03T15:32:30;7.32;;;2.10;;
59512;SDS011;45330;51.634;5.562;2023-04-03T15:34:56;5.07;;;1.90;;
59512;SDS011;45330;51.634;5.562;2023-04-03T15:37:21;7.72;;;2.22;;
59512;SDS011;45330;51.634;5.562;2023-04-03T15:39:47;7.20;;;2.20;;
59512;SDS011;45330;51.634;5.562;2023-04-03T15:42:12;6.95;;;2.22;;
59512;SDS011;45330;51.634;5.562;2023-04-03T15:44:37;5.60;;;1.65;;
59512;SDS011;45330;51.634;5.562;2023-04-03T15:47:03;8.00;;;2.22;;
59512;SDS011;45330;51.634;5.562;2023-04-03T15:49:29;7.25;;;2.00;;
59512;SDS011;45330;51.634;5.562;2023-04-03T15:51:58;5.50;;;1.88;;
59512;SDS011;45330;51.634;5.562;2023-04-03T15:54:23;5.70;;;2.10;;
59512;SDS011;45330;51.634;5.562;2023-04-03T15:56:50;6.78;;;2.00;;
59512;SDS011;45330;51.634;5.562;2023-04-03T15:59:15;7.25;;;2.30;;
59512;SDS011;45330;51.634;5.562;2023-04-03T16:01:41;7.50;;;1.98;;
59512;SDS011;45330;51.634;5.562;2023-04-03T16:04:07;6.13;;;1.98;;
59512;SDS011;45330;51.634;5.562;2023-04-03T16:06:35;4.97;;;2.20;;
59512;SDS011;45330;51.634;5.562;2023-04-03T16:09:02;6.40;;;2.25;;
59512;SDS011;45330;51.634;5.562;2023-04-03T16:11:28;7.10;;;2.00;;
59512;SDS011;45330;51.634;5.562;2023-04-03T16:13:54;6.25;;;2.15;;
59512;SDS011;45330;51.634;5.562;2023-04-03T16:16:20;8.18;;;2.22;;
59512;SDS011;45330;51.634;5.562;2023-04-03T16:18:46;8.85;;;2.65;;
59512;SDS011;45330;51.634;5.562;2023-04-03T16:21:12;7.10;;;1.95;;
59512;SDS011;45330;51.634;5.562;2023-04-03T16:23:40;8.82;;;2.00;;
59512;SDS011;45330;51.634;5.562;2023-04-03T16:26:06;4.25;;;2.00;;
59512;SDS011;45330;51.634;5.562;2023-04-03T16:28:32;6.00;;;2.10;;
59512;SDS011;45330;51.634;5.562;2023-04-03T16:30:57;7.10;;;2.30;;
59512;SDS011;45330;51.634;5.562;2023-04-03T16:33:23;7.28;;;1.85;;
59512;SDS011;45330;51.634;5.562;2023-04-03T16:35:52;7.47;;;2.20;;
59512;SDS011;45330;51.634;5.562;2023-04-03T16:38:17;6.13;;;1.88;;
59512;SDS011;45330;51.634;5.562;2023-04-03T16:40:44;9.15;;;2.20;;
59512;SDS011;45330;51.634;5.562;2023-04-03T16:43:10;7.75;;;1.95;;
59512;SDS011;45330;51.634;5.562;2023-04-03T16:45:36;8.63;;;2.22;;
59512;SDS011;45330;51.634;5.562;2023-04-03T16:48:01;5.00;;;1.80;;
59512;SDS011;45330;51.634;5.562;2023-04-03T16:50:27;6.20;;;2.20;;
59512;SDS011;45330;51.634;5.562;2023-04-03T16:52:52;10.00;;;2.45;;
59512;SDS011;45330;51.634;5.562;2023-04-03T16:55:18;6.57;;;2.20;;